createdAt,value
2022-10-11T00:00:16.587Z,96164.31
2022-10-11T00:01:19.492Z,96158.81
2022-10-11T00:02:24.437Z,96167.06
2022-10-11T00:03:29.257Z,96174.53
2022-10-11T00:04:31.067Z,96174.53
2022-10-11T00:05:34.553Z,96172.19
2022-10-11T00:06:37.837Z,96180.03
2022-10-11T00:07:40.901Z,96176.94
2022-10-11T00:08:42.751Z,96182.41
2022-10-11T00:09:45.834Z,96176.94
2022-10-11T00:10:57.057Z,96184.41
2022-10-11T00:12:00.217Z,96177.34
2022-10-11T00:13:02.753Z,96182.06
2022-10-11T00:14:06.042Z,96180.88
2022-10-11T00:15:09.502Z,96180.53
2022-10-11T00:16:14.217Z,96177.78
2022-10-11T00:17:16.232Z,96176.22
2022-10-11T00:18:20.456Z,96177.78
2022-10-11T00:19:22.742Z,96180.53
2022-10-11T00:20:25.897Z,96183.69
2022-10-11T00:21:27.793Z,96177.78
2022-10-11T00:22:30.577Z,96183.28
2022-10-11T00:23:33.207Z,96181.72
2022-10-11T00:24:35.953Z,96187.97
2022-10-11T00:25:39.179Z,96182.94
2022-10-11T00:26:46.390Z,96182.94
2022-10-11T00:27:51.663Z,96180.94
2022-10-11T00:28:54.612Z,96182.94
2022-10-11T00:29:56.783Z,96188.44
2022-10-11T00:30:59.626Z,96182.16
2022-10-11T00:32:02.490Z,96185.69
2022-10-11T00:33:04.319Z,96192.69
2022-10-11T00:34:08.775Z,96189.19
2022-10-11T00:35:10.583Z,96196.22
2022-10-11T00:36:16.697Z,96186.44
2022-10-11T00:37:19.295Z,96194.28
2022-10-11T00:38:22.209Z,96184.03
2022-10-11T00:39:24.081Z,96187.56
2022-10-11T00:40:29.772Z,96189.13
2022-10-11T00:41:31.656Z,96198.13
2022-10-11T00:42:34.500Z,96188.69
2022-10-11T00:43:36.431Z,96189.47
2022-10-11T00:44:41.065Z,96193.41
2022-10-11T00:46:30.958Z,96196.50
2022-10-11T00:47:33.265Z,96196.50
2022-10-11T00:48:42.818Z,96195.72
2022-10-11T00:49:50.878Z,96203.22
2022-10-11T00:50:53.672Z,96199.25
2022-10-11T00:51:59.864Z,96203.53
2022-10-11T00:53:07.864Z,96200.00
2022-10-11T00:54:14.426Z,96195.28
2022-10-11T00:55:20.966Z,96198.81
2022-10-11T00:56:27.318Z,96194.09
2022-10-11T00:57:35.046Z,96197.25
2022-10-11T00:58:38.623Z,96191.34
2022-10-11T00:59:46.188Z,96198.03
2022-10-11T01:00:48.119Z,96201.13
2022-10-11T01:01:51.225Z,96199.59
2022-10-11T01:02:53.349Z,96201.13
2022-10-11T01:03:56.799Z,96194.09
2022-10-11T01:05:25.277Z,96196.84
2022-10-11T01:06:23.783Z,96199.59
2022-10-11T01:07:31.128Z,96184.28
2022-10-11T01:08:34.496Z,96190.59
2022-10-11T01:09:36.465Z,96195.28
2022-10-11T01:10:39.555Z,96196.84
2022-10-11T01:11:43.604Z,96192.53
2022-10-11T01:12:58.097Z,96188.25
2022-10-11T01:14:22.955Z,96196.50
2022-10-11T01:15:36.461Z,96199.25
2022-10-11T01:16:47.115Z,96197.25
2022-10-11T01:17:57.640Z,96191.41
2022-10-11T01:19:12.173Z,96196.91
2022-10-11T01:20:32.214Z,96194.97
2022-10-11T01:21:41.571Z,96198.91
2022-10-11T01:23:12.943Z,96196.91
2022-10-11T01:24:37.603Z,96194.63
2022-10-11T01:25:55.331Z,96192.63
2022-10-11T01:27:25.959Z,96190.66
2022-10-11T01:28:43.806Z,96190.66
2022-10-11T01:29:55.650Z,96197.38
2022-10-11T01:31:05.462Z,96198.91
2022-10-11T01:32:15.223Z,96190.66
2022-10-11T01:33:26.998Z,96198.13
2022-10-11T01:34:37.142Z,96198.91
2022-10-11T01:35:46.419Z,96201.28
2022-10-11T01:36:55.945Z,96197.38
2022-10-11T01:38:04.047Z,96190.31
2022-10-11T01:39:14.137Z,96193.06
2022-10-11T01:40:23.592Z,96195.81
2022-10-11T01:41:31.943Z,96195.81
2022-10-11T01:42:36.106Z,96199.31
2022-10-11T01:43:41.482Z,96200.09
2022-10-11T01:44:47.617Z,96202.06
2022-10-11T01:45:52.689Z,96208.34
2022-10-11T01:46:56.187Z,96195.81
2022-10-11T01:48:05.058Z,96204.03
2022-10-11T01:49:07.621Z,96195.81
2022-10-11T01:50:35.280Z,96189.53
2022-10-11T01:51:46.361Z,96197.78
2022-10-11T01:52:50.585Z,96200.53
2022-10-11T01:55:04.388Z,96198.19
2022-10-11T01:56:09.696Z,96198.19
2022-10-11T01:57:41.168Z,96199.75
2022-10-11T01:58:57.493Z,96191.53
2022-10-11T02:00:08.965Z,96191.94
2022-10-11T02:01:24.147Z,96192.69
2022-10-11T02:02:41.731Z,96191.94
2022-10-11T02:03:48.144Z,96183.69
2022-10-11T02:04:56.947Z,96184.13
2022-10-11T02:06:08.898Z,96182.94
2022-10-11T02:07:20.631Z,96185.69
2022-10-11T02:08:32.483Z,96186.09
2022-10-11T02:09:37.759Z,96183.34
2022-10-11T02:10:45.373Z,96179.84
2022-10-11T02:11:48.384Z,96186.09
2022-10-11T02:12:57.958Z,96187.31
2022-10-11T02:14:07.718Z,96188.06
2022-10-11T02:15:12.931Z,96181.81
2022-10-11T02:16:20.913Z,96173.56
2022-10-11T02:17:29.057Z,96179.84
2022-10-11T02:18:37.398Z,96182.59
2022-10-11T02:19:43.625Z,96176.31
2022-10-11T02:20:48.088Z,96174.00
2022-10-11T02:21:54.521Z,96175.53
2022-10-11T02:23:02.434Z,96175.53
2022-10-11T02:24:09.435Z,96179.50
2022-10-11T02:25:17.637Z,96168.50
2022-10-11T02:26:21.277Z,96168.50
2022-10-11T02:27:28.637Z,96171.25
2022-10-11T02:28:34.629Z,96176.75
2022-10-11T02:29:40.668Z,96168.50
2022-10-11T02:30:45.215Z,96175.53
2022-10-11T02:31:50.485Z,96172.47
2022-10-11T02:32:54.567Z,96170.03
2022-10-11T02:34:06.465Z,96163.78
2022-10-11T02:35:09.671Z,96175.53
2022-10-11T02:36:17.178Z,96175.53
2022-10-11T02:37:26.672Z,96174.00
2022-10-11T02:38:36.125Z,96168.50
2022-10-11T02:39:42.357Z,96166.53
2022-10-11T02:40:48.673Z,96168.50
2022-10-11T02:41:53.384Z,96174.00
2022-10-11T02:43:01.244Z,96169.72
2022-10-11T02:44:08.175Z,96171.25
2022-10-11T02:45:16.374Z,96179.50
2022-10-11T02:46:18.611Z,96179.50
2022-10-11T02:47:21.375Z,96173.22
2022-10-11T02:48:25.098Z,96179.50
2022-10-11T02:49:30.685Z,96175.97
2022-10-11T02:50:32.827Z,96184.97
2022-10-11T02:51:36.872Z,96180.25
2022-10-11T02:52:38.863Z,96179.50
2022-10-11T02:53:41.669Z,96183.44
2022-10-11T02:54:43.424Z,96182.22
2022-10-11T02:55:46.458Z,96176.75
2022-10-11T02:56:48.236Z,96180.69
2022-10-11T02:57:51.160Z,96171.66
2022-10-11T02:58:53.045Z,96168.16
2022-10-11T02:59:56.103Z,96176.38
2022-10-11T03:00:58.119Z,96181.88
2022-10-11T03:02:01.212Z,96183.88
2022-10-11T03:03:03.107Z,96185.84
2022-10-11T03:04:06.251Z,96191.34
2022-10-11T03:05:09.997Z,96190.53
2022-10-11T03:06:13.865Z,96190.53
2022-10-11T03:07:15.704Z,96200.75
2022-10-11T03:08:18.912Z,96196.03
2022-10-11T03:09:20.770Z,96207.00
2022-10-11T03:10:23.586Z,96202.31
2022-10-11T03:11:25.636Z,96207.81
2022-10-11T03:12:28.363Z,96207.81
2022-10-11T03:13:30.137Z,96211.75
2022-10-11T03:14:32.899Z,96211.75
2022-10-11T03:15:35.289Z,96204.72
2022-10-11T03:16:38.064Z,96209.00
2022-10-11T03:17:39.910Z,96212.94
2022-10-11T03:18:42.983Z,96210.22
2022-10-11T03:19:44.734Z,96206.25
2022-10-11T03:20:49.018Z,96212.94
2022-10-11T03:21:50.835Z,96217.22
2022-10-11T03:22:53.686Z,96215.69
2022-10-11T03:23:55.465Z,96203.16
2022-10-11T03:25:03.368Z,96215.69
2022-10-11T03:26:06.742Z,96212.94
2022-10-11T03:27:09.744Z,96214.13
2022-10-11T03:28:11.645Z,96211.38
2022-10-11T03:29:14.582Z,96218.44
2022-10-11T03:30:18.301Z,96214.13
2022-10-11T03:31:23.557Z,96215.69
2022-10-11T03:32:25.560Z,96216.88
2022-10-11T03:33:28.333Z,96223.94
2022-10-11T03:34:30.165Z,96219.63
2022-10-11T03:35:32.909Z,96227.88
2022-10-11T03:36:37.105Z,96235.34
2022-10-11T03:37:38.882Z,96229.84
2022-10-11T03:38:41.734Z,96229.84
2022-10-11T03:39:43.602Z,96227.88
2022-10-11T03:40:46.375Z,96234.56
2022-10-11T03:41:48.127Z,96230.59
2022-10-11T03:42:50.888Z,96227.88
2022-10-11T03:43:52.702Z,96229.06
2022-10-11T03:44:55.445Z,96229.06
2022-10-11T03:45:57.404Z,96237.31
2022-10-11T03:47:00.353Z,96233.34
2022-10-11T03:48:02.442Z,96236.09
2022-10-11T03:49:05.273Z,96236.09
2022-10-11T03:50:08.781Z,96234.16
2022-10-11T03:51:13.073Z,96236.09
2022-10-11T03:52:16.214Z,96244.34
2022-10-11T03:53:19.054Z,96243.16
2022-10-11T03:54:20.928Z,96240.41
2022-10-11T03:55:23.729Z,96237.66
2022-10-11T03:56:25.522Z,96239.63
2022-10-11T03:57:28.584Z,96249.81
2022-10-11T03:58:30.467Z,96239.63
2022-10-11T03:59:33.217Z,96236.91
2022-10-11T04:00:36.008Z,96244.34
2022-10-11T04:01:38.875Z,96242.38
2022-10-11T04:02:40.724Z,96246.31
2022-10-11T04:03:43.548Z,96242.38
2022-10-11T04:04:45.347Z,96243.16
2022-10-11T04:05:48.102Z,96240.81
2022-10-11T04:06:49.915Z,96246.31
2022-10-11T04:07:54.057Z,96248.28
2022-10-11T04:08:55.873Z,96240.06
2022-10-11T04:09:58.961Z,96245.56
2022-10-11T04:11:00.778Z,96236.53
2022-10-11T04:12:03.717Z,96233.00
2022-10-11T04:13:05.668Z,96235.75
2022-10-11T04:14:08.568Z,96231.47
2022-10-11T04:15:12.621Z,96237.72
2022-10-11T04:16:15.475Z,96228.72
2022-10-11T04:17:17.486Z,96236.97
2022-10-11T04:18:20.247Z,96237.72
2022-10-11T04:19:22.236Z,96229.50
2022-10-11T04:20:25.079Z,96232.22
2022-10-11T04:21:26.833Z,96228.72
2022-10-11T04:22:29.625Z,96236.97
2022-10-11T04:23:33.714Z,96233.00
2022-10-11T04:24:36.506Z,96232.22
2022-10-11T04:25:38.640Z,96230.69
2022-10-11T04:26:41.462Z,96236.19
2022-10-11T04:27:43.340Z,96239.72
2022-10-11T04:28:46.161Z,96229.94
2022-10-11T04:29:48.916Z,96236.97
2022-10-11T04:30:52.106Z,96232.69
2022-10-11T04:31:53.866Z,96229.94
2022-10-11T04:32:56.826Z,96238.94
2022-10-11T04:33:58.641Z,96232.69
2022-10-11T04:35:01.860Z,96237.38
2022-10-11T04:36:04.646Z,96231.88
2022-10-11T04:37:07.668Z,96236.59
2022-10-11T04:38:09.849Z,96235.06
2022-10-11T04:39:14.113Z,96237.38
2022-10-11T04:40:16.137Z,96236.59
2022-10-11T04:41:18.906Z,96231.88
2022-10-11T04:42:21.054Z,96228.38
2022-10-11T04:43:23.823Z,96233.88
2022-10-11T04:44:25.642Z,96226.84
2022-10-11T04:45:28.488Z,96232.31
2022-10-11T04:46:30.472Z,96226.84
2022-10-11T04:47:33.231Z,96235.06
2022-10-11T04:48:35.361Z,96233.50
2022-10-11T04:49:38.876Z,96230.75
2022-10-11T04:50:40.653Z,96235.06
2022-10-11T04:51:44.118Z,96236.25
2022-10-11T04:52:45.901Z,96233.50
2022-10-11T04:53:48.939Z,96248.44
2022-10-11T04:54:52.068Z,96241.75
2022-10-11T04:56:01.062Z,96237.47
2022-10-11T04:57:03.424Z,96244.13
2022-10-11T04:58:06.183Z,96238.66
2022-10-11T04:59:08.018Z,96234.72
2022-10-11T05:00:12.294Z,96236.69
2022-10-11T05:01:15.080Z,96238.66
2022-10-11T05:02:18.110Z,96235.13
2022-10-11T05:03:20.621Z,96236.34
2022-10-11T05:04:23.485Z,96228.09
2022-10-11T05:05:26.498Z,96234.38
2022-10-11T05:06:29.490Z,96238.28
2022-10-11T05:07:31.398Z,96237.53
2022-10-11T05:08:34.546Z,96241.84
2022-10-11T05:09:36.380Z,96233.59
2022-10-11T05:10:40.899Z,96236.34
2022-10-11T05:11:42.662Z,96239.84
2022-10-11T05:12:45.431Z,96234.00
2022-10-11T05:13:47.605Z,96234.00
2022-10-11T05:14:50.377Z,96243.03
2022-10-11T05:15:52.633Z,96238.75
2022-10-11T05:16:55.644Z,96243.47
2022-10-11T05:17:57.480Z,96255.97
2022-10-11T05:19:00.419Z,96246.22
2022-10-11T05:20:02.529Z,96243.47
2022-10-11T05:21:08.992Z,96252.88
2022-10-11T05:22:10.895Z,96241.91
2022-10-11T05:23:13.927Z,96249.38
2022-10-11T05:24:15.734Z,96252.13
2022-10-11T05:25:18.686Z,96247.38
2022-10-11T05:26:22.807Z,96254.09
2022-10-11T05:27:25.633Z,96251.34
2022-10-11T05:28:28.044Z,96249.38
2022-10-11T05:29:30.965Z,96240.38
2022-10-11T05:30:33.242Z,96247.81
2022-10-11T05:31:36.067Z,96244.28
2022-10-11T05:32:37.905Z,96238.81
2022-10-11T05:33:40.705Z,96255.28
2022-10-11T05:34:42.500Z,96251.75
2022-10-11T05:35:45.498Z,96254.91
2022-10-11T05:36:47.427Z,96252.97
2022-10-11T05:37:50.284Z,96254.91
2022-10-11T05:38:53.091Z,96259.22
2022-10-11T05:39:54.824Z,96251.41
2022-10-11T05:41:00.769Z,96263.16
2022-10-11T05:42:08.929Z,96260.06
2022-10-11T05:43:12.781Z,96269.84
2022-10-11T05:44:14.600Z,96268.28
2022-10-11T05:45:17.537Z,96253.78
2022-10-11T05:46:19.500Z,96259.28
2022-10-11T05:47:22.408Z,96265.53
2022-10-11T05:48:26.141Z,96269.50
2022-10-11T05:49:29.168Z,96265.22
2022-10-11T05:50:32.128Z,96267.97
2022-10-11T05:51:35.121Z,96270.72
2022-10-11T05:52:37.094Z,96275.00
2022-10-11T05:53:40.464Z,96275.00
2022-10-11T05:54:42.244Z,96275.00
2022-10-11T05:55:45.839Z,96281.25
2022-10-11T05:56:48.201Z,96285.97
2022-10-11T05:57:54.442Z,96280.47
2022-10-11T05:59:01.382Z,96279.72
2022-10-11T06:00:06.025Z,96279.72
2022-10-11T06:01:19.506Z,96279.28
2022-10-11T06:02:22.329Z,96286.31
2022-10-11T06:03:25.348Z,96282.38
2022-10-11T06:04:28.222Z,96286.69
2022-10-11T06:05:29.995Z,96282.72
2022-10-11T06:06:33.113Z,96281.19
2022-10-11T06:07:36.229Z,96286.69
2022-10-11T06:08:39.053Z,96288.22
2022-10-11T06:09:41.821Z,96288.22
2022-10-11T06:10:44.776Z,96288.22
2022-10-11T06:11:47.676Z,96293.69
2022-10-11T06:12:49.456Z,96285.47
2022-10-11T06:13:57.899Z,96277.22
2022-10-11T06:15:00.128Z,96288.22
2022-10-11T06:16:04.915Z,96287.03
2022-10-11T06:17:06.947Z,96283.50
2022-10-11T06:18:09.803Z,96288.97
2022-10-11T06:19:11.611Z,96288.97
2022-10-11T06:20:14.490Z,96288.22
2022-10-11T06:21:17.357Z,96288.97
2022-10-11T06:22:19.148Z,96282.72
2022-10-11T06:23:22.040Z,96286.22
2022-10-11T06:24:23.912Z,96288.97
2022-10-11T06:25:26.811Z,96288.97
2022-10-11T06:26:28.723Z,96281.94
2022-10-11T06:27:31.574Z,96283.38
2022-10-11T06:28:35.466Z,96289.63
2022-10-11T06:29:39.700Z,96290.41
2022-10-11T06:30:41.539Z,96283.38
2022-10-11T06:31:44.574Z,96286.88
2022-10-11T06:32:46.399Z,96288.06
2022-10-11T06:33:49.222Z,96288.06
2022-10-11T06:34:51.112Z,96284.97
2022-10-11T06:35:58.793Z,96287.72
2022-10-11T06:37:01.558Z,96288.91
2022-10-11T06:38:03.316Z,96288.91
2022-10-11T06:39:06.061Z,96288.91
2022-10-11T06:40:08.646Z,96290.13
2022-10-11T06:41:14.180Z,96292.88
2022-10-11T06:42:16.314Z,96292.09
2022-10-11T06:43:19.336Z,96297.56
2022-10-11T06:44:21.167Z,96294.06
2022-10-11T06:45:25.452Z,96292.09
2022-10-11T06:46:28.311Z,96299.91
2022-10-11T06:47:31.146Z,96298.38
2022-10-11T06:48:32.952Z,96292.88
2022-10-11T06:49:36.390Z,96295.63
2022-10-11T06:50:58.695Z,96303.84
2022-10-11T06:52:01.215Z,96302.66
2022-10-11T06:53:03.180Z,96305.41
2022-10-11T06:54:06.148Z,96304.63
2022-10-11T06:55:08.698Z,96305.41
2022-10-11T06:56:12.997Z,96308.13
2022-10-11T06:57:14.796Z,96314.75
2022-10-11T06:58:18.319Z,96308.50
2022-10-11T06:59:20.127Z,96312.78
2022-10-11T07:00:22.966Z,96309.25
2022-10-11T07:01:26.813Z,96314.34
2022-10-11T07:02:30.340Z,96314.34
2022-10-11T07:03:32.685Z,96318.63
2022-10-11T07:04:35.622Z,96313.91
2022-10-11T07:05:37.501Z,96313.91
2022-10-11T07:06:41.996Z,96309.97
2022-10-11T07:07:44.536Z,96304.91
2022-10-11T07:08:47.693Z,96321.72
2022-10-11T07:09:49.584Z,96311.50
2022-10-11T07:10:52.608Z,96306.81
2022-10-11T07:11:54.445Z,96324.06
2022-10-11T07:12:57.376Z,96318.56
2022-10-11T07:14:01.242Z,96320.88
2022-10-11T07:15:04.677Z,96315.38
2022-10-11T07:16:09.586Z,96309.13
2022-10-11T07:17:15.413Z,96316.94
2022-10-11T07:18:17.218Z,96318.47
2022-10-11T07:19:20.278Z,96327.50
2022-10-11T07:20:22.689Z,96321.22
2022-10-11T07:21:27.579Z,96323.97
2022-10-11T07:22:29.377Z,96323.97
2022-10-11T07:23:32.377Z,96325.09
2022-10-11T07:24:35.245Z,96327.06
2022-10-11T07:25:37.191Z,96321.56
2022-10-11T07:26:39.956Z,96328.63
2022-10-11T07:27:43.251Z,96327.06
2022-10-11T07:28:46.959Z,96336.88
2022-10-11T07:29:50.372Z,96332.91
2022-10-11T07:30:54.445Z,96331.72
2022-10-11T07:31:57.279Z,96334.47
2022-10-11T07:33:00.701Z,96336.03
2022-10-11T07:34:03.500Z,96341.09
2022-10-11T07:35:06.233Z,96330.88
2022-10-11T07:36:10.163Z,96336.38
2022-10-11T07:37:12.093Z,96331.66
2022-10-11T07:38:15.023Z,96337.91
2022-10-11T07:39:17.927Z,96340.25
2022-10-11T07:40:19.735Z,96334.75
2022-10-11T07:41:22.956Z,96342.56
2022-10-11T07:42:25.239Z,96341.38
2022-10-11T07:43:28.048Z,96338.63
2022-10-11T07:44:31.118Z,96340.19
2022-10-11T07:45:33.271Z,96340.94
2022-10-11T07:46:36.082Z,96341.72
2022-10-11T07:47:39.108Z,96347.22
2022-10-11T07:48:42.726Z,96337.78
2022-10-11T07:49:45.549Z,96347.56
2022-10-11T07:50:47.679Z,96348.78
2022-10-11T07:51:50.482Z,96340.09
2022-10-11T07:52:52.334Z,96351.06
2022-10-11T07:53:57.252Z,96344.81
2022-10-11T07:54:59.091Z,96340.84
2022-10-11T07:56:02.834Z,96341.66
2022-10-11T07:57:04.993Z,96340.84
2022-10-11T07:58:08.211Z,96347.16
2022-10-11T07:59:12.358Z,96341.66
2022-10-11T08:00:14.788Z,96342.44
2022-10-11T08:01:17.682Z,96343.97
2022-10-11T08:02:19.641Z,96342.44
2022-10-11T08:03:22.535Z,96343.97
2022-10-11T08:04:26.877Z,96343.97
2022-10-11T08:05:28.693Z,96349.47
2022-10-11T08:06:32.796Z,96347.50
2022-10-11T08:07:35.108Z,96351.78
2022-10-11T08:08:37.947Z,96351.78
2022-10-11T08:09:41.111Z,96350.25
2022-10-11T08:10:42.958Z,96356.50
2022-10-11T08:11:45.740Z,96359.25
2022-10-11T08:12:47.673Z,96362.78
2022-10-11T08:13:50.890Z,96363.53
2022-10-11T08:14:54.540Z,96357.28
2022-10-11T08:15:57.475Z,96355.31
2022-10-11T08:16:59.656Z,96357.28
2022-10-11T08:18:02.571Z,96354.53
2022-10-11T08:19:05.687Z,96357.28
2022-10-11T08:20:10.094Z,96355.75
2022-10-11T08:21:15.144Z,96358.50
2022-10-11T08:22:16.966Z,96363.19
2022-10-11T08:23:20.848Z,96363.19
2022-10-11T08:24:25.018Z,96369.13
2022-10-11T08:25:27.026Z,96367.91
2022-10-11T08:26:30.163Z,96368.69
2022-10-11T08:27:32.358Z,96368.69
2022-10-11T08:28:35.295Z,96367.50
2022-10-11T08:29:38.242Z,96367.50
2022-10-11T08:30:40.118Z,96368.28
2022-10-11T08:31:44.436Z,96371.78
2022-10-11T08:32:46.281Z,96367.84
2022-10-11T08:33:49.060Z,96361.16
2022-10-11T08:34:50.870Z,96361.91
2022-10-11T08:35:55.616Z,96363.47
2022-10-11T08:36:58.637Z,96364.25
2022-10-11T08:38:00.553Z,96375.25
2022-10-11T08:39:03.325Z,96374.03
2022-10-11T08:40:06.567Z,96365.78
2022-10-11T08:41:28.252Z,96372.84
2022-10-11T08:42:35.931Z,96366.13
2022-10-11T08:43:46.971Z,96375.19
2022-10-11T08:46:23.651Z,96376.72
2022-10-11T08:47:30.885Z,96371.22
2022-10-11T08:48:36.990Z,96376.34
2022-10-11T08:49:40.707Z,96379.84
2022-10-11T08:50:46.556Z,96379.09
2022-10-11T08:51:59.964Z,96380.63
2022-10-11T08:53:07.993Z,96376.69
2022-10-11T08:54:19.028Z,96378.22
2022-10-11T08:55:26.315Z,96381.31
2022-10-11T08:56:31.865Z,96384.06
2022-10-11T08:57:37.941Z,96379.34
2022-10-11T08:58:43.566Z,96382.44
2022-10-11T08:59:51.052Z,96382.03
2022-10-11T09:00:56.445Z,96385.13
2022-10-11T09:02:06.078Z,96381.16
2022-10-11T09:03:21.647Z,96382.72
2022-10-11T09:04:23.527Z,96382.28
2022-10-11T09:05:32.110Z,96385.81
2022-10-11T09:06:47.244Z,96380.31
2022-10-11T09:08:00.933Z,96382.28
2022-10-11T09:09:14.830Z,96381.88
2022-10-11T09:10:48.061Z,96381.88
2022-10-11T09:12:03.305Z,96381.88
2022-10-11T09:13:18.215Z,96380.66
2022-10-11T09:14:44.015Z,96373.63
2022-10-11T09:15:57.439Z,96381.44
2022-10-11T09:17:06.500Z,96386.16
2022-10-11T09:18:27.200Z,96385.41
2022-10-11T09:19:51.943Z,96379.47
2022-10-11T09:21:09.245Z,96378.69
2022-10-11T09:22:24.803Z,96375.16
2022-10-11T09:23:46.448Z,96377.91
2022-10-11T09:25:05.834Z,96380.25
2022-10-11T09:26:15.615Z,96374.75
2022-10-11T09:27:37.846Z,96376.72
2022-10-11T09:29:03.353Z,96375.53
2022-10-11T09:30:10.975Z,96372.41
2022-10-11T09:31:13.866Z,96373.19
2022-10-11T09:32:17.853Z,96379.47
2022-10-11T09:33:24.924Z,96374.00
2022-10-11T09:34:32.372Z,96376.72
2022-10-11T09:35:41.938Z,96370.03
2022-10-11T09:36:50.952Z,96370.78
2022-10-11T09:38:00.874Z,96376.28
2022-10-11T09:39:13.828Z,96364.53
2022-10-11T09:40:41.242Z,96369.25
2022-10-11T09:41:50.220Z,96365.28
2022-10-11T09:42:53.139Z,96370.03
2022-10-11T09:43:55.991Z,96371.59
2022-10-11T09:45:00.022Z,96368.41
2022-10-11T09:46:03.214Z,96372.34
2022-10-11T09:47:06.879Z,96366.09
2022-10-11T09:48:11.286Z,96368.84
2022-10-11T09:49:16.903Z,96378.63
2022-10-11T09:50:21.028Z,96370.78
2022-10-11T09:51:26.990Z,96367.63
2022-10-11T09:52:30.063Z,96368.41
2022-10-11T09:53:56.767Z,96367.97
2022-10-11T09:55:02.982Z,96365.22
2022-10-11T09:56:05.678Z,96366.00
2022-10-11T09:57:21.017Z,96364.03
2022-10-11T09:58:27.975Z,96362.84
2022-10-11T09:59:32.568Z,96367.56
2022-10-11T10:00:34.640Z,96364.38
2022-10-11T10:01:37.902Z,96364.38
2022-10-11T10:02:42.012Z,96372.19
2022-10-11T10:03:45.439Z,96372.19
2022-10-11T10:05:00.293Z,96371.00
2022-10-11T10:06:08.504Z,96374.09
2022-10-11T10:07:13.591Z,96363.09
2022-10-11T10:08:25.381Z,96366.59
2022-10-11T10:09:30.316Z,96366.19
2022-10-11T10:10:40.487Z,96369.72
2022-10-11T10:11:42.436Z,96371.69
2022-10-11T10:12:45.403Z,96371.28
2022-10-11T10:13:50.993Z,96365.00
2022-10-11T10:15:05.026Z,96371.28
2022-10-11T10:16:11.628Z,96369.28
2022-10-11T10:17:17.405Z,96366.53
2022-10-11T10:18:24.468Z,96365.78
2022-10-11T10:19:27.492Z,96368.53
2022-10-11T10:20:31.740Z,96370.50
2022-10-11T10:21:37.182Z,96371.28
2022-10-11T10:22:40.133Z,96373.59
2022-10-11T10:23:43.249Z,96372.03
2022-10-11T10:24:46.377Z,96368.09
2022-10-11T10:25:51.782Z,96370.06
2022-10-11T10:27:08.245Z,96376.78
2022-10-11T10:28:20.116Z,96367.31
2022-10-11T10:29:22.056Z,96367.31
2022-10-11T10:30:25.144Z,96375.56
2022-10-11T10:31:49.441Z,96378.31
2022-10-11T10:33:02.049Z,96370.06
2022-10-11T10:34:11.627Z,96370.06
2022-10-11T10:35:19.772Z,96378.31
2022-10-11T10:36:28.056Z,96378.31
2022-10-11T10:37:33.881Z,96373.59
2022-10-11T10:38:41.716Z,96376.31
2022-10-11T10:39:51.042Z,96371.63
2022-10-11T10:40:59.091Z,96379.88
2022-10-11T10:42:03.559Z,96373.59
2022-10-11T10:43:06.452Z,96367.66
2022-10-11T10:44:10.791Z,96373.59
2022-10-11T10:45:21.157Z,96369.66
2022-10-11T10:46:52.032Z,96375.91
2022-10-11T10:48:10.888Z,96377.91
2022-10-11T10:50:51.031Z,96373.16
2022-10-11T10:52:08.048Z,96371.63
2022-10-11T10:53:24.402Z,96375.91
2022-10-11T10:54:41.522Z,96371.97
2022-10-11T10:55:46.044Z,96366.47
2022-10-11T10:56:55.877Z,96366.47
2022-10-11T10:58:24.735Z,96365.28
2022-10-11T10:59:43.941Z,96366.81
2022-10-11T11:00:49.416Z,96364.06
2022-10-11T11:01:57.282Z,96368.38
2022-10-11T11:03:02.589Z,96367.16
2022-10-11T11:04:12.578Z,96363.97
2022-10-11T11:05:27.029Z,96359.25
2022-10-11T11:06:39.565Z,96364.75
2022-10-11T11:07:48.068Z,96358.06
2022-10-11T11:09:04.206Z,96360.81
2022-10-11T11:10:14.308Z,96356.09
2022-10-11T11:11:31.728Z,96352.13
2022-10-11T11:12:46.419Z,96352.91
2022-10-11T11:13:56.535Z,96353.69
2022-10-11T11:15:06.809Z,96357.19
2022-10-11T11:16:19.758Z,96356.78
2022-10-11T11:17:29.879Z,96347.75
2022-10-11T11:18:43.261Z,96352.06
2022-10-11T11:19:58.321Z,96354.81
2022-10-11T11:21:25.751Z,96355.16
2022-10-11T11:22:36.409Z,96356.69
2022-10-11T11:23:46.476Z,96353.94
2022-10-11T11:24:59.849Z,96355.50
2022-10-11T11:26:10.370Z,96348.78
2022-10-11T11:27:24.923Z,96355.06
2022-10-11T11:29:04.512Z,96349.56
2022-10-11T11:30:10.160Z,96349.56
2022-10-11T11:31:30.465Z,96354.28
2022-10-11T11:32:47.199Z,96350.34
2022-10-11T11:33:59.243Z,96343.63
2022-10-11T11:35:03.764Z,96353.41
2022-10-11T11:36:12.519Z,96346.75
2022-10-11T11:37:24.689Z,96343.22
2022-10-11T11:38:39.989Z,96347.50
2022-10-11T11:39:48.023Z,96346.75
2022-10-11T11:40:55.841Z,96346.75
2022-10-11T11:42:05.176Z,96341.25
2022-10-11T11:43:16.788Z,96345.97
2022-10-11T11:44:27.619Z,96344.75
2022-10-11T11:45:37.231Z,96345.53
2022-10-11T11:46:43.936Z,96346.75
2022-10-11T11:47:53.862Z,96345.53
2022-10-11T11:48:58.711Z,96343.13
2022-10-11T11:50:06.565Z,96336.09
2022-10-11T11:51:18.630Z,96348.63
2022-10-11T11:52:27.773Z,96349.38
2022-10-11T11:53:43.731Z,96350.94
2022-10-11T11:54:53.027Z,96343.47
2022-10-11T11:56:01.269Z,96340.72
2022-10-11T11:57:14.235Z,96347.78
2022-10-11T11:58:30.694Z,96336.78
2022-10-11T11:59:41.286Z,96338.31
2022-10-11T12:00:52.942Z,96339.09
2022-10-11T12:02:12.285Z,96339.84
2022-10-11T12:03:22.581Z,96338.66
2022-10-11T12:04:28.476Z,96338.25
2022-10-11T12:05:33.408Z,96339.78
2022-10-11T12:06:52.516Z,96333.50
2022-10-11T12:08:05.443Z,96333.50
2022-10-11T12:09:21.229Z,96339.78
2022-10-11T12:10:37.617Z,96335.81
2022-10-11T12:11:46.077Z,96340.13
2022-10-11T12:12:49.140Z,96336.59
2022-10-11T12:13:55.212Z,96339.72
2022-10-11T12:15:19.512Z,96330.25
2022-10-11T12:16:23.088Z,96331.00
2022-10-11T12:17:26.297Z,96333.34
2022-10-11T12:18:29.185Z,96328.59
2022-10-11T12:19:32.297Z,96334.88
2022-10-11T12:20:38.578Z,96328.19
2022-10-11T12:21:45.295Z,96325.44
2022-10-11T12:22:56.144Z,96325.78
2022-10-11T12:24:00.925Z,96328.88
2022-10-11T12:25:36.287Z,96327.31
2022-10-11T12:26:42.824Z,96331.63
2022-10-11T12:27:47.062Z,96320.63
2022-10-11T12:29:07.643Z,96324.91
2022-10-11T12:30:43.797Z,96318.19
2022-10-11T12:31:48.065Z,96322.50
2022-10-11T12:32:53.441Z,96317.34
2022-10-11T12:34:20.858Z,96313.38
2022-10-11T12:36:05.873Z,96312.53
2022-10-11T12:37:59.843Z,96308.56
2022-10-11T12:39:44.134Z,96315.59
2022-10-11T12:40:49.068Z,96314.06
2022-10-11T12:41:53.855Z,96315.28
2022-10-11T12:43:29.188Z,96316.88
2022-10-11T12:44:32.910Z,96317.69
2022-10-11T12:45:34.992Z,96314.94
2022-10-11T12:46:57.672Z,96306.69
2022-10-11T12:48:13.212Z,96310.63
2022-10-11T12:49:29.166Z,96312.19
2022-10-11T12:50:39.264Z,96307.88
2022-10-11T12:51:52.160Z,96314.94
2022-10-11T12:53:03.476Z,96303.13
2022-10-11T12:54:37.516Z,96309.44
2022-10-11T12:55:57.105Z,96305.47
2022-10-11T12:57:28.740Z,96310.97
2022-10-11T12:58:38.782Z,96307.03
2022-10-11T12:59:46.203Z,96307.03
2022-10-11T13:01:18.719Z,96304.59
2022-10-11T13:02:29.030Z,96304.59
2022-10-11T13:03:34.206Z,96301.84
2022-10-11T13:04:37.039Z,96299.09
2022-10-11T13:05:45.312Z,96298.31
2022-10-11T13:06:51.192Z,96301.84